Flight Track Log - Related Links

Times and Time Zones

All times are in EDT time to prevent confusion due to time zone crossing. See the UAL4274 flight status page for this flight to view local times or setup timezone preferences in your user account.

Time Position Orientation Groundspeed Altitude Reporting Facility
EDT Latitude Longitude Course Direction KTS MPH feet Rate Location/Type
Mon 06:20:47 AM 37.4603 -77.3056 310° West 167 192 1,800  Level Washington Center
Mon 06:21:49 AM 37.4636 -77.3631 274° West 207 238 3,600 2,150 Climbing Washington Center
Mon 06:22:47 AM 37.5022 -77.4192 311° West 228 262 6,100 2,370 Climbing Washington Center
Mon 06:23:00 AM 37.7209 -77.6813 310° West  Level FlightAware Approximate
Mon 06:23:48 AM 37.5472 -77.4778 314° West 228 262 8,300  Level Washington Center
Mon 06:24:00 AM 37.7815 -77.7690 307° West  Level FlightAware Approximate
Mon 06:24:50 AM 37.5900 -77.5417 310° West 239 275 10,400  Level Washington Center
Mon 06:25:00 AM 37.8374 -77.8623 307° West  Level FlightAware Approximate
Mon 06:25:50 AM 37.6411 -77.6139 312° West 249 287 11,400  Level Washington Center
Mon 06:26:00 AM 37.8878 -77.9566 310° West  Level FlightAware Approximate
Mon 06:26:48 AM 37.6961 -77.6939 311° West 274 315 12,600  Level Washington Center
Mon 06:27:48 AM 37.7531 -77.7744 312° West 304 350 14,100 1,785 Climbing Washington Center
Mon 06:28:49 AM 37.8097 -77.8575 311° West 309 356 16,200 1,785 Climbing Washington Center
Mon 06:29:49 AM 37.8606 -77.9328 311° West 304 350 17,700 1,424 Climbing Washington Center
Mon 06:30:47 AM 37.9175 -78.0108 313° West 299 344 19,000 1,190 Climbing Washington Center
Mon 06:31:50 AM 37.9742 -78.0944 311° West 304 350 20,100 1,050 Climbing Washington Center
Mon 06:32:47 AM 38.0500 -78.1575 327° Northwest 322 371 21,100 1,008 Climbing Washington Center
Mon 06:33:49 AM 38.1478 -78.1661 356° North 318 366 22,100 984 Climbing Washington Center
Mon 06:34:49 AM 38.2497 -78.1697 358° North 335 386 23,100 1,041 Climbing Washington Center
Mon 06:35:50 AM 38.3497 -78.1758 357° North 348 400 24,200 958 Climbing Washington Center
Mon 06:36:48 AM 38.4497 -78.1819 357° North 353 406 25,000 400 Climbing Washington Center
Mon 06:37:50 AM 38.5539 -78.1881 357° North 360 414 25,000  Level Washington Center
Mon 06:38:47 AM 38.6642 -78.1947 357° North 372 428 25,000  Level Washington Center
Mon 06:39:49 AM 38.7789 -78.2014 357° North 388 447 25,000  Level Washington Center
Mon 06:40:48 AM 38.8828 -78.2103 356° North 401 461 25,000  Level Washington Center
Mon 06:41:49 AM 38.9972 -78.2225 355° North 406 467 25,000  Level Washington Center
Mon 06:42:50 AM 39.1136 -78.2347 355° North 411 473 25,000  Level Washington Center
Mon 06:43:50 AM 39.2303 -78.2469 355° North 416 479 25,000  Level Washington Center
Mon 06:46:16 AM 39.5325 -78.2750 356° North 420 483 25,000  Level Cleveland Center
Mon 06:47:17 AM 39.6494 -78.2858 356° North 420 483 25,000  Level Cleveland Center
Mon 06:48:19 AM 39.7647 -78.2997 355° North 419 482 25,000  Level Cleveland Center
Mon 06:49:20 AM 39.8744 -78.3092 356° North 418 481 25,000  Level Cleveland Center
Mon 06:50:21 AM 39.9850 -78.3325 351° North 409 471 25,000  Level Cleveland Center
Mon 06:51:22 AM 40.0586 -78.4342 313° West 390 449 25,000  Level Cleveland Center
Mon 06:52:23 AM 40.1278 -78.5383 311° West 382 440 25,000  Level Cleveland Center
Mon 06:53:24 AM 40.1958 -78.6444 310° West 382 440 25,000 -49 Level Cleveland Center
Mon 06:54:26 AM 40.2781 -78.7736 310° West 383 441 24,900 -488 Descending Cleveland Center
Mon 06:55:27 AM 40.3444 -78.8806 309° West 382 440 24,000 -443 Descending Cleveland Center
Mon 06:56:28 AM 40.4050 -78.9883 306° West 374 430 24,000  Level Cleveland Center
Mon 06:57:29 AM 40.4664 -79.0972 307° West 373 429 24,000  Level Cleveland Center
Mon 06:58:30 AM 40.5272 -79.2069 306° West 373 429 24,000  Level Cleveland Center
Mon 06:59:32 AM 40.5881 -79.3142 307° West 374 430 24,000  Level Cleveland Center
Mon 07:00:33 AM 40.6492 -79.4244 306° West 376 433 24,000  Level Cleveland Center
Mon 07:01:34 AM 40.7089 -79.5325 306° West 371 427 24,000  Level Cleveland Center
Mon 07:02:36 AM 40.7694 -79.6406 307° West 371 427 24,000  Level Cleveland Center
Mon 07:03:37 AM 40.8408 -79.7722 306° West 371 427 24,000  Level Cleveland Center
Mon 07:04:38 AM 40.9019 -79.8817 306° West 372 428 24,000  Level Cleveland Center
Mon 07:05:39 AM 40.9617 -79.9917 306° West 371 427 24,000  Level Cleveland Center
Mon 07:06:41 AM 41.0217 -80.1008 306° West 372 428 24,000  Level Cleveland Center
Mon 07:07:42 AM 41.0828 -80.2094 307° West 371 427 24,000  Level Cleveland Center
Mon 07:08:43 AM 41.1419 -80.3206 305° West 371 427 24,000  Level Cleveland Center
Mon 07:09:45 AM 41.2022 -80.4356 305° West 370 426 24,000 -1,073 Level Cleveland Center
Mon 07:10:46 AM 41.2617 -80.5450 306° West 367 422 21,800 -2,557 Descending Cleveland Center
Mon 07:11:47 AM 41.3286 -80.6703 305° West 356 410 18,800 -2,732 Descending Cleveland Center
Mon 07:12:49 AM 41.3722 -80.7792 298° West 337 388 16,200 -2,571 Descending Cleveland Center
Mon 07:13:25 AM 41.3958 -80.8447 296° West 333 383 14,600 -2,557 Descending Cleveland Center
Mon 07:13:50 AM 41.4128 -80.8894 297° West 332 382 13,600 -2,182 Descending Cleveland Center
Mon 07:14:20 AM 41.4336 -80.9425 298° West 320 368 12,600 -1,935 Descending Cleveland Center
Mon 07:14:52 AM 41.4525 -80.9925 297° West 318 366 11,600 -1,700 Descending Cleveland Center
Mon 07:15:20 AM 41.4647 -81.0475 287° West 305 351 10,900 -1,161 Descending Cleveland Center
Mon 07:15:54 AM 41.4703 -81.1047 277° West 315 362 10,400 -716 Descending Cleveland Center
Mon 07:16:27 AM 41.4772 -81.1692 278° West 306 352 10,100 -393 Descending Cleveland Center
Mon 07:16:55 AM 41.4822 -81.2164 278° West 308 354 10,000 -90 Descending Cleveland Center
Mon 07:17:34 AM 41.4872 -81.2964 275° West 296 341 10,000  Level Cleveland Center
Mon 07:17:57 AM 41.4911 -81.3203 282° West 286 329 10,000 -1,000 Level Cleveland Center
Mon 07:18:28 AM 41.4956 -81.3675 277° West 225 259 9,100 -1,672 Descending Cleveland Center
Mon 07:18:58 AM 41.4975 -81.4039 274° West 235 270 8,300 -1,970 Descending Cleveland Center
Mon 07:19:35 AM 41.5039 -81.4636 278° West 219 252 6,900 -1,839 Descending Cleveland Center
Mon 07:20:00 AM 41.5058 -81.4861 277° West 227 261 6,400 -1,574 Descending Cleveland Center
Mon 07:20:36 AM 41.5114 -81.5458 277° West 225 259 5,300 -1,574 Descending Cleveland Center
Mon 07:21:01 AM 41.5131 -81.5711 275° West 227 261 4,800 -1,333 Descending Cleveland Center
Mon 07:21:30 AM 41.5167 -81.6250 275° West 234 269 4,100 -774 Descending Cleveland Center
Mon 07:22:03 AM 41.5167 -81.6703 270° West 229 264 4,000 -448 Descending Cleveland Center
Mon 07:22:37 AM 41.5025 -81.7119 246° West 232 267 3,600 -984 Descending Cleveland Center
Mon 07:23:04 AM 41.4831 -81.7414 229° Southwest 229 264 3,000 -984 Descending Cleveland Center
Mon 07:23:38 AM 41.4661 -81.7675 229° Southwest 178 205 2,600 -871 Descending Cleveland Center
Mon 07:24:06 AM 41.4561 -81.7847 232° Southwest 170 196 2,100 -875 Descending Cleveland Center
Mon 07:24:26 AM 41.4486 -81.7981 233° Southwest 103 119 1,900 -590 Descending Cleveland Center
Mon 07:25:07 AM 41.4356 -81.8161 226° Southwest 130 150 1,500 -608 Descending Cleveland Center
Mon 07:25:45 AM 41.4194 -81.8408 229° Southwest 123 142 1,100 -677 Descending Cleveland Center
Mon 07:26:09 AM 41.4142 -81.8514 236° Southwest 123 142 800 -750 Descending Cleveland Center

Login

Don't have an account? Register now (free) for customized features, flight alerts, and more!